sensor_id;sensor_type;location;lat;lon;timestamp;P1;durP1;ratioP1;P2;durP2;ratioP2
54121;SDS011;40029;58.708;50.190;2022-12-07T00:00:31;15.23;;;5.60;;
54121;SDS011;40029;58.708;50.190;2022-12-07T00:03:02;23.00;;;6.90;;
54121;SDS011;40029;58.708;50.190;2022-12-07T00:05:33;21.70;;;7.10;;
54121;SDS011;40029;58.708;50.190;2022-12-07T00:08:04;23.23;;;7.67;;
54121;SDS011;40029;58.708;50.190;2022-12-07T00:10:35;19.03;;;7.73;;
54121;SDS011;40029;58.708;50.190;2022-12-07T00:13:06;22.40;;;8.50;;
54121;SDS011;40029;58.708;50.190;2022-12-07T00:15:37;16.23;;;6.70;;
54121;SDS011;40029;58.708;50.190;2022-12-07T00:18:08;20.30;;;7.80;;
54121;SDS011;40029;58.708;50.190;2022-12-07T00:20:39;21.27;;;7.33;;
54121;SDS011;40029;58.708;50.190;2022-12-07T00:23:10;15.87;;;7.63;;
54121;SDS011;40029;58.708;50.190;2022-12-07T00:25:41;19.97;;;7.17;;
54121;SDS011;40029;58.708;50.190;2022-12-07T00:28:12;14.43;;;7.07;;
54121;SDS011;40029;58.708;50.190;2022-12-07T00:30:43;22.13;;;7.60;;
54121;SDS011;40029;58.708;50.190;2022-12-07T00:33:13;24.70;;;7.30;;
54121;SDS011;40029;58.708;50.190;2022-12-07T00:35:44;20.33;;;7.20;;
54121;SDS011;40029;58.708;50.190;2022-12-07T00:38:15;21.70;;;7.73;;
54121;SDS011;40029;58.708;50.190;2022-12-07T00:40:53;19.43;;;7.37;;
54121;SDS011;40029;58.708;50.190;2022-12-07T00:43:26;19.63;;;7.30;;
54121;SDS011;40029;58.708;50.190;2022-12-07T00:45:57;20.00;;;6.73;;
54121;SDS011;40029;58.708;50.190;2022-12-07T00:48:29;15.43;;;6.47;;
54121;SDS011;40029;58.708;50.190;2022-12-07T00:51:00;18.30;;;8.17;;
54121;SDS011;40029;58.708;50.190;2022-12-07T00:53:33;24.37;;;7.40;;
54121;SDS011;40029;58.708;50.190;2022-12-07T00:56:05;24.25;;;9.30;;
54121;SDS011;40029;58.708;50.190;2022-12-07T00:58:37;16.20;;;7.00;;
54121;SDS011;40029;58.708;50.190;2022-12-07T01:01:08;22.43;;;8.43;;
54121;SDS011;40029;58.708;50.190;2022-12-07T01:03:40;20.27;;;7.50;;
54121;SDS011;40029;58.708;50.190;2022-12-07T01:06:13;30.43;;;9.37;;
54121;SDS011;40029;58.708;50.190;2022-12-07T01:08:49;22.97;;;9.93;;
54121;SDS011;40029;58.708;50.190;2022-12-07T01:11:22;29.30;;;10.00;;
54121;SDS011;40029;58.708;50.190;2022-12-07T01:13:55;26.77;;;10.73;;
54121;SDS011;40029;58.708;50.190;2022-12-07T01:16:28;26.65;;;9.27;;
54121;SDS011;40029;58.708;50.190;2022-12-07T01:19:01;28.70;;;10.70;;
54121;SDS011;40029;58.708;50.190;2022-12-07T01:21:33;29.10;;;9.37;;
54121;SDS011;40029;58.708;50.190;2022-12-07T01:24:07;31.73;;;9.93;;
54121;SDS011;40029;58.708;50.190;2022-12-07T01:26:40;42.67;;;12.10;;
54121;SDS011;40029;58.708;50.190;2022-12-07T01:29:11;46.80;;;13.03;;
54121;SDS011;40029;58.708;50.190;2022-12-07T01:31:42;48.03;;;13.70;;
54121;SDS011;40029;58.708;50.190;2022-12-07T01:34:13;78.80;;;22.27;;
54121;SDS011;40029;58.708;50.190;2022-12-07T01:36:44;72.27;;;21.70;;
54121;SDS011;40029;58.708;50.190;2022-12-07T01:39:15;59.00;;;17.47;;
54121;SDS011;40029;58.708;50.190;2022-12-07T01:41:46;58.07;;;17.83;;
54121;SDS011;40029;58.708;50.190;2022-12-07T01:44:18;47.50;;;15.40;;
54121;SDS011;40029;58.708;50.190;2022-12-07T01:47:03;24.70;;;9.00;;
54121;SDS011;40029;58.708;50.190;2022-12-07T01:52:09;28.73;;;10.63;;
54121;SDS011;40029;58.708;50.190;2022-12-07T01:54:57;29.53;;;9.83;;
54121;SDS011;40029;58.708;50.190;2022-12-07T01:57:34;23.40;;;9.40;;
54121;SDS011;40029;58.708;50.190;2022-12-07T02:00:10;32.07;;;10.33;;
54121;SDS011;40029;58.708;50.190;2022-12-07T02:05:16;26.07;;;10.33;;
54121;SDS011;40029;58.708;50.190;2022-12-07T02:07:48;35.83;;;13.57;;
54121;SDS011;40029;58.708;50.190;2022-12-07T02:10:28;28.30;;;10.03;;
54121;SDS011;40029;58.708;50.190;2022-12-07T02:15:45;23.70;;;8.33;;
54121;SDS011;40029;58.708;50.190;2022-12-07T02:24:24;13.13;;;6.03;;
54121;SDS011;40029;58.708;50.190;2022-12-07T02:30:23;19.53;;;6.33;;
54121;SDS011;40029;58.708;50.190;2022-12-07T02:33:03;15.77;;;5.50;;
54121;SDS011;40029;58.708;50.190;2022-12-07T02:38:23;15.47;;;6.17;;
54121;SDS011;40029;58.708;50.190;2022-12-07T02:43:41;17.27;;;6.20;;
54121;SDS011;40029;58.708;50.190;2022-12-07T02:46:27;23.20;;;7.70;;
54121;SDS011;40029;58.708;50.190;2022-12-07T02:49:03;19.97;;;7.10;;
54121;SDS011;40029;58.708;50.190;2022-12-07T02:51:38;16.10;;;6.97;;
54121;SDS011;40029;58.708;50.190;2022-12-07T02:54:12;22.73;;;7.27;;
54121;SDS011;40029;58.708;50.190;2022-12-07T03:07:49;13.43;;;4.75;;
54121;SDS011;40029;58.708;50.190;2022-12-07T03:10:35;9.43;;;4.45;;
54121;SDS011;40029;58.708;50.190;2022-12-07T03:16:31;12.23;;;4.83;;
54121;SDS011;40029;58.708;50.190;2022-12-07T03:19:15;10.20;;;4.33;;
54121;SDS011;40029;58.708;50.190;2022-12-07T03:22:10;21.17;;;5.60;;
54121;SDS011;40029;58.708;50.190;2022-12-07T03:24:42;13.07;;;4.77;;
54121;SDS011;40029;58.708;50.190;2022-12-07T03:27:25;24.67;;;6.20;;
54121;SDS011;40029;58.708;50.190;2022-12-07T03:30:13;9.67;;;4.50;;
54121;SDS011;40029;58.708;50.190;2022-12-07T03:32:53;14.60;;;5.37;;
54121;SDS011;40029;58.708;50.190;2022-12-07T03:35:42;13.97;;;4.87;;
54121;SDS011;40029;58.708;50.190;2022-12-07T03:38:23;21.47;;;6.17;;
54121;SDS011;40029;58.708;50.190;2022-12-07T03:41:00;26.20;;;8.80;;
54121;SDS011;40029;58.708;50.190;2022-12-07T03:43:36;26.37;;;9.13;;
54121;SDS011;40029;58.708;50.190;2022-12-07T03:57:26;18.73;;;8.17;;
54121;SDS011;40029;58.708;50.190;2022-12-07T04:00:00;18.75;;;6.25;;
54121;SDS011;40029;58.708;50.190;2022-12-07T04:02:42;16.53;;;6.07;;
54121;SDS011;40029;58.708;50.190;2022-12-07T04:05:13;10.87;;;5.13;;
54121;SDS011;40029;58.708;50.190;2022-12-07T04:07:44;17.53;;;6.50;;
54121;SDS011;40029;58.708;50.190;2022-12-07T04:10:16;20.17;;;7.30;;
54121;SDS011;40029;58.708;50.190;2022-12-07T04:12:47;16.97;;;6.90;;
54121;SDS011;40029;58.708;50.190;2022-12-07T04:15:18;16.03;;;5.70;;
54121;SDS011;40029;58.708;50.190;2022-12-07T04:17:49;11.63;;;4.40;;
54121;SDS011;40029;58.708;50.190;2022-12-07T04:20:21;21.13;;;5.93;;
54121;SDS011;40029;58.708;50.190;2022-12-07T04:22:52;13.10;;;4.70;;
54121;SDS011;40029;58.708;50.190;2022-12-07T04:25:23;13.97;;;5.40;;
54121;SDS011;40029;58.708;50.190;2022-12-07T04:27:53;13.93;;;5.60;;
54121;SDS011;40029;58.708;50.190;2022-12-07T04:30:24;10.27;;;4.70;;
54121;SDS011;40029;58.708;50.190;2022-12-07T04:32:55;11.03;;;4.50;;
54121;SDS011;40029;58.708;50.190;2022-12-07T04:35:26;14.07;;;5.13;;
54121;SDS011;40029;58.708;50.190;2022-12-07T04:37:57;8.03;;;3.90;;
54121;SDS011;40029;58.708;50.190;2022-12-07T04:40:28;16.70;;;5.30;;
54121;SDS011;40029;58.708;50.190;2022-12-07T04:42:59;15.20;;;5.63;;
54121;SDS011;40029;58.708;50.190;2022-12-07T04:45:30;15.93;;;4.50;;
54121;SDS011;40029;58.708;50.190;2022-12-07T04:48:01;10.50;;;4.23;;
54121;SDS011;40029;58.708;50.190;2022-12-07T04:50:32;11.90;;;4.13;;
54121;SDS011;40029;58.708;50.190;2022-12-07T04:53:03;12.40;;;3.60;;
54121;SDS011;40029;58.708;50.190;2022-12-07T04:55:34;8.73;;;3.77;;
54121;SDS011;40029;58.708;50.190;2022-12-07T04:58:05;9.07;;;3.90;;
54121;SDS011;40029;58.708;50.190;2022-12-07T05:00:36;12.47;;;3.57;;
54121;SDS011;40029;58.708;50.190;2022-12-07T05:03:07;11.83;;;4.60;;
54121;SDS011;40029;58.708;50.190;2022-12-07T05:05:40;11.07;;;4.83;;
54121;SDS011;40029;58.708;50.190;2022-12-07T05:10:42;5.87;;;3.53;;
54121;SDS011;40029;58.708;50.190;2022-12-07T05:13:14;11.17;;;4.10;;
54121;SDS011;40029;58.708;50.190;2022-12-07T05:15:46;11.60;;;4.43;;
54121;SDS011;40029;58.708;50.190;2022-12-07T05:18:18;16.15;;;4.40;;
54121;SDS011;40029;58.708;50.190;2022-12-07T05:20:49;15.33;;;4.37;;
54121;SDS011;40029;58.708;50.190;2022-12-07T05:23:21;15.67;;;4.93;;
54121;SDS011;40029;58.708;50.190;2022-12-07T05:25:52;15.93;;;4.97;;
54121;SDS011;40029;58.708;50.190;2022-12-07T05:28:23;13.00;;;4.77;;
54121;SDS011;40029;58.708;50.190;2022-12-07T05:30:54;16.30;;;5.60;;
54121;SDS011;40029;58.708;50.190;2022-12-07T05:33:25;15.00;;;5.20;;
54121;SDS011;40029;58.708;50.190;2022-12-07T05:35:56;14.13;;;5.20;;
54121;SDS011;40029;58.708;50.190;2022-12-07T05:38:27;25.20;;;7.43;;
54121;SDS011;40029;58.708;50.190;2022-12-07T05:41:05;18.47;;;6.50;;
54121;SDS011;40029;58.708;50.190;2022-12-07T05:43:37;14.07;;;5.30;;
54121;SDS011;40029;58.708;50.190;2022-12-07T05:46:08;17.30;;;6.03;;
54121;SDS011;40029;58.708;50.190;2022-12-07T05:48:39;21.00;;;7.77;;
54121;SDS011;40029;58.708;50.190;2022-12-07T05:51:10;16.50;;;6.37;;
54121;SDS011;40029;58.708;50.190;2022-12-07T05:53:41;22.80;;;6.80;;
54121;SDS011;40029;58.708;50.190;2022-12-07T05:56:12;21.33;;;6.13;;
54121;SDS011;40029;58.708;50.190;2022-12-07T05:58:43;14.23;;;5.43;;
54121;SDS011;40029;58.708;50.190;2022-12-07T06:01:33;13.67;;;4.57;;
54121;SDS011;40029;58.708;50.190;2022-12-07T06:04:04;12.60;;;4.37;;
54121;SDS011;40029;58.708;50.190;2022-12-07T06:06:35;11.67;;;4.63;;
54121;SDS011;40029;58.708;50.190;2022-12-07T06:09:06;8.93;;;3.50;;
54121;SDS011;40029;58.708;50.190;2022-12-07T06:11:38;10.30;;;4.30;;
54121;SDS011;40029;58.708;50.190;2022-12-07T06:14:27;7.40;;;3.43;;
54121;SDS011;40029;58.708;50.190;2022-12-07T06:16:59;8.43;;;3.63;;
54121;SDS011;40029;58.708;50.190;2022-12-07T06:19:30;9.30;;;3.80;;
54121;SDS011;40029;58.708;50.190;2022-12-07T06:22:01;13.53;;;5.00;;
54121;SDS011;40029;58.708;50.190;2022-12-07T06:24:35;12.93;;;4.50;;
54121;SDS011;40029;58.708;50.190;2022-12-07T06:27:06;18.67;;;5.17;;
54121;SDS011;40029;58.708;50.190;2022-12-07T06:29:37;14.17;;;5.27;;
54121;SDS011;40029;58.708;50.190;2022-12-07T06:32:08;11.43;;;4.73;;
54121;SDS011;40029;58.708;50.190;2022-12-07T06:34:39;12.03;;;4.43;;
54121;SDS011;40029;58.708;50.190;2022-12-07T06:37:10;15.43;;;4.73;;
54121;SDS011;40029;58.708;50.190;2022-12-07T06:39:41;19.80;;;5.20;;
54121;SDS011;40029;58.708;50.190;2022-12-07T06:42:12;14.70;;;5.07;;
54121;SDS011;40029;58.708;50.190;2022-12-07T06:44:43;9.60;;;3.93;;
54121;SDS011;40029;58.708;50.190;2022-12-07T06:47:14;10.00;;;3.80;;
54121;SDS011;40029;58.708;50.190;2022-12-07T06:49:45;14.17;;;4.77;;
54121;SDS011;40029;58.708;50.190;2022-12-07T06:52:16;25.67;;;7.40;;
54121;SDS011;40029;58.708;50.190;2022-12-07T06:54:47;21.63;;;8.00;;
54121;SDS011;40029;58.708;50.190;2022-12-07T06:57:18;23.10;;;6.90;;
54121;SDS011;40029;58.708;50.190;2022-12-07T06:59:50;32.47;;;5.30;;
54121;SDS011;40029;58.708;50.190;2022-12-07T07:02:21;18.17;;;5.07;;
54121;SDS011;40029;58.708;50.190;2022-12-07T07:04:52;23.57;;;6.17;;
54121;SDS011;40029;58.708;50.190;2022-12-07T07:07:23;23.53;;;6.27;;
54121;SDS011;40029;58.708;50.190;2022-12-07T07:09:54;17.43;;;6.33;;
54121;SDS011;40029;58.708;50.190;2022-12-07T07:12:25;15.50;;;5.13;;
54121;SDS011;40029;58.708;50.190;2022-12-07T07:14:56;18.80;;;7.07;;
54121;SDS011;40029;58.708;50.190;2022-12-07T07:17:27;15.80;;;6.03;;
54121;SDS011;40029;58.708;50.190;2022-12-07T07:19:58;15.53;;;6.03;;
54121;SDS011;40029;58.708;50.190;2022-12-07T07:22:29;13.00;;;5.53;;
54121;SDS011;40029;58.708;50.190;2022-12-07T07:25:00;12.87;;;4.33;;
54121;SDS011;40029;58.708;50.190;2022-12-07T07:27:30;14.00;;;5.33;;
54121;SDS011;40029;58.708;50.190;2022-12-07T07:30:02;15.47;;;5.20;;
54121;SDS011;40029;58.708;50.190;2022-12-07T07:32:34;14.60;;;4.83;;
54121;SDS011;40029;58.708;50.190;2022-12-07T07:35:05;10.57;;;4.47;;
54121;SDS011;40029;58.708;50.190;2022-12-07T07:37:36;14.67;;;4.83;;
54121;SDS011;40029;58.708;50.190;2022-12-07T07:40:08;12.20;;;4.93;;
54121;SDS011;40029;58.708;50.190;2022-12-07T07:42:41;13.82;;;5.18;;
54121;SDS011;40029;58.708;50.190;2022-12-07T07:45:12;13.23;;;5.87;;
54121;SDS011;40029;58.708;50.190;2022-12-07T07:47:43;16.93;;;6.53;;
54121;SDS011;40029;58.708;50.190;2022-12-07T07:50:14;15.90;;;7.00;;
54121;SDS011;40029;58.708;50.190;2022-12-07T07:52:45;17.53;;;6.87;;
54121;SDS011;40029;58.708;50.190;2022-12-07T07:55:16;24.37;;;6.13;;
54121;SDS011;40029;58.708;50.190;2022-12-07T07:57:47;10.50;;;5.73;;
54121;SDS011;40029;58.708;50.190;2022-12-07T08:00:18;9.53;;;3.77;;
54121;SDS011;40029;58.708;50.190;2022-12-07T08:02:50;12.43;;;3.70;;
54121;SDS011;40029;58.708;50.190;2022-12-07T08:05:21;10.03;;;3.73;;
54121;SDS011;40029;58.708;50.190;2022-12-07T08:07:52;9.37;;;4.43;;
54121;SDS011;40029;58.708;50.190;2022-12-07T08:10:23;12.07;;;4.37;;
54121;SDS011;40029;58.708;50.190;2022-12-07T08:12:54;22.47;;;5.33;;
54121;SDS011;40029;58.708;50.190;2022-12-07T08:15:45;17.27;;;4.57;;
54121;SDS011;40029;58.708;50.190;2022-12-07T08:18:17;13.07;;;4.07;;
54121;SDS011;40029;58.708;50.190;2022-12-07T08:20:48;9.07;;;3.73;;
54121;SDS011;40029;58.708;50.190;2022-12-07T08:23:19;8.57;;;3.80;;
54121;SDS011;40029;58.708;50.190;2022-12-07T08:25:50;22.93;;;4.30;;
54121;SDS011;40029;58.708;50.190;2022-12-07T08:28:21;10.30;;;4.47;;
54121;SDS011;40029;58.708;50.190;2022-12-07T08:30:52;8.13;;;3.50;;
54121;SDS011;40029;58.708;50.190;2022-12-07T08:33:28;13.20;;;4.20;;
54121;SDS011;40029;58.708;50.190;2022-12-07T08:36:00;13.57;;;4.40;;
54121;SDS011;40029;58.708;50.190;2022-12-07T08:38:34;12.27;;;4.30;;
54121;SDS011;40029;58.708;50.190;2022-12-07T08:41:06;9.35;;;3.95;;
54121;SDS011;40029;58.708;50.190;2022-12-07T08:43:38;12.07;;;5.13;;
54121;SDS011;40029;58.708;50.190;2022-12-07T08:48:46;18.30;;;6.40;;
54121;SDS011;40029;58.708;50.190;2022-12-07T08:51:23;16.50;;;6.90;;
54121;SDS011;40029;58.708;50.190;2022-12-07T08:53:54;36.27;;;5.70;;
54121;SDS011;40029;58.708;50.190;2022-12-07T08:56:26;11.50;;;5.23;;
54121;SDS011;40029;58.708;50.190;2022-12-07T08:58:58;11.83;;;5.27;;
54121;SDS011;40029;58.708;50.190;2022-12-07T09:01:29;10.13;;;5.13;;
54121;SDS011;40029;58.708;50.190;2022-12-07T09:04:00;10.80;;;4.57;;
54121;SDS011;40029;58.708;50.190;2022-12-07T09:06:31;13.00;;;5.13;;
54121;SDS011;40029;58.708;50.190;2022-12-07T09:09:02;16.67;;;5.30;;
54121;SDS011;40029;58.708;50.190;2022-12-07T09:11:34;10.17;;;4.17;;
54121;SDS011;40029;58.708;50.190;2022-12-07T09:14:05;10.37;;;3.53;;
54121;SDS011;40029;58.708;50.190;2022-12-07T09:16:37;8.77;;;4.50;;
54121;SDS011;40029;58.708;50.190;2022-12-07T09:19:08;11.53;;;5.07;;
54121;SDS011;40029;58.708;50.190;2022-12-07T09:21:39;9.97;;;5.10;;
54121;SDS011;40029;58.708;50.190;2022-12-07T09:24:11;9.63;;;3.97;;
54121;SDS011;40029;58.708;50.190;2022-12-07T09:26:43;10.87;;;4.43;;
54121;SDS011;40029;58.708;50.190;2022-12-07T09:29:14;11.63;;;4.40;;
54121;SDS011;40029;58.708;50.190;2022-12-07T09:31:45;10.87;;;4.33;;
54121;SDS011;40029;58.708;50.190;2022-12-07T09:34:16;12.33;;;3.73;;
54121;SDS011;40029;58.708;50.190;2022-12-07T09:36:47;8.07;;;4.77;;
54121;SDS011;40029;58.708;50.190;2022-12-07T09:39:18;13.07;;;5.60;;
54121;SDS011;40029;58.708;50.190;2022-12-07T09:41:49;12.97;;;4.57;;
54121;SDS011;40029;58.708;50.190;2022-12-07T09:44:22;16.50;;;6.00;;
54121;SDS011;40029;58.708;50.190;2022-12-07T09:46:55;11.70;;;5.50;;
54121;SDS011;40029;58.708;50.190;2022-12-07T09:49:31;14.00;;;4.90;;
54121;SDS011;40029;58.708;50.190;2022-12-07T09:52:16;9.87;;;4.23;;
54121;SDS011;40029;58.708;50.190;2022-12-07T09:54:55;15.20;;;5.67;;
54121;SDS011;40029;58.708;50.190;2022-12-07T09:57:30;9.83;;;4.57;;
54121;SDS011;40029;58.708;50.190;2022-12-07T10:00:07;14.87;;;4.83;;
54121;SDS011;40029;58.708;50.190;2022-12-07T10:03:01;13.60;;;5.27;;
54121;SDS011;40029;58.708;50.190;2022-12-07T10:05:37;12.23;;;5.20;;
54121;SDS011;40029;58.708;50.190;2022-12-07T10:08:12;11.83;;;4.90;;
54121;SDS011;40029;58.708;50.190;2022-12-07T10:10:44;14.93;;;5.20;;
54121;SDS011;40029;58.708;50.190;2022-12-07T10:13:21;12.25;;;5.50;;
54121;SDS011;40029;58.708;50.190;2022-12-07T10:16:04;20.07;;;5.20;;
54121;SDS011;40029;58.708;50.190;2022-12-07T10:21:12;14.07;;;5.27;;
54121;SDS011;40029;58.708;50.190;2022-12-07T10:26:59;16.03;;;5.60;;
54121;SDS011;40029;58.708;50.190;2022-12-07T10:29:31;13.83;;;5.77;;
54121;SDS011;40029;58.708;50.190;2022-12-07T10:32:06;13.80;;;6.22;;
54121;SDS011;40029;58.708;50.190;2022-12-07T10:42:22;15.03;;;5.67;;
54121;SDS011;40029;58.708;50.190;2022-12-07T10:45:09;10.75;;;4.55;;
54121;SDS011;40029;58.708;50.190;2022-12-07T10:50:43;13.68;;;5.30;;
54121;SDS011;40029;58.708;50.190;2022-12-07T10:56:35;11.33;;;4.00;;
54121;SDS011;40029;58.708;50.190;2022-12-07T11:05:13;11.97;;;4.17;;
54121;SDS011;40029;58.708;50.190;2022-12-07T11:10:44;9.93;;;4.17;;
54121;SDS011;40029;58.708;50.190;2022-12-07T11:13:23;10.07;;;3.73;;
54121;SDS011;40029;58.708;50.190;2022-12-07T11:16:05;9.37;;;3.57;;
54121;SDS011;40029;58.708;50.190;2022-12-07T11:19:04;15.03;;;4.87;;
54121;SDS011;40029;58.708;50.190;2022-12-07T11:21:57;9.77;;;4.80;;
54121;SDS011;40029;58.708;50.190;2022-12-07T11:24:32;12.30;;;5.07;;
54121;SDS011;40029;58.708;50.190;2022-12-07T11:35:50;26.40;;;8.07;;
54121;SDS011;40029;58.708;50.190;2022-12-07T11:38:40;23.33;;;9.23;;
54121;SDS011;40029;58.708;50.190;2022-12-07T11:41:17;18.73;;;6.57;;
54121;SDS011;40029;58.708;50.190;2022-12-07T11:46:47;20.10;;;6.70;;
54121;SDS011;40029;58.708;50.190;2022-12-07T11:51:57;9.07;;;4.15;;
54121;SDS011;40029;58.708;50.190;2022-12-07T11:54:34;9.43;;;4.37;;
54121;SDS011;40029;58.708;50.190;2022-12-07T11:57:24;11.53;;;4.60;;
54121;SDS011;40029;58.708;50.190;2022-12-07T12:00:04;11.23;;;3.60;;
54121;SDS011;40029;58.708;50.190;2022-12-07T12:02:48;15.63;;;4.80;;
54121;SDS011;40029;58.708;50.190;2022-12-07T12:05:26;12.23;;;4.23;;
54121;SDS011;40029;58.708;50.190;2022-12-07T12:14:00;13.07;;;5.23;;
54121;SDS011;40029;58.708;50.190;2022-12-07T15:08:26;28.30;;;10.27;;
54121;SDS011;40029;58.708;50.190;2022-12-07T15:10:57;25.00;;;8.53;;
54121;SDS011;40029;58.708;50.190;2022-12-07T15:13:28;21.23;;;8.47;;
54121;SDS011;40029;58.708;50.190;2022-12-07T15:16:19;27.53;;;9.10;;
54121;SDS011;40029;58.708;50.190;2022-12-07T15:18:51;28.17;;;9.40;;
54121;SDS011;40029;58.708;50.190;2022-12-07T15:21:22;27.00;;;8.97;;
54121;SDS011;40029;58.708;50.190;2022-12-07T15:23:53;26.13;;;8.93;;
54121;SDS011;40029;58.708;50.190;2022-12-07T15:26:24;33.13;;;10.63;;
54121;SDS011;40029;58.708;50.190;2022-12-07T15:28:55;40.43;;;14.00;;
54121;SDS011;40029;58.708;50.190;2022-12-07T15:31:26;50.70;;;17.07;;
54121;SDS011;40029;58.708;50.190;2022-12-07T15:33:57;53.00;;;15.93;;
54121;SDS011;40029;58.708;50.190;2022-12-07T15:36:29;62.37;;;20.77;;
54121;SDS011;40029;58.708;50.190;2022-12-07T15:39:02;40.40;;;13.30;;
54121;SDS011;40029;58.708;50.190;2022-12-07T15:41:34;38.03;;;11.73;;
54121;SDS011;40029;58.708;50.190;2022-12-07T15:44:05;42.43;;;12.30;;
54121;SDS011;40029;58.708;50.190;2022-12-07T15:46:55;45.70;;;12.93;;
54121;SDS011;40029;58.708;50.190;2022-12-07T15:49:26;42.03;;;12.30;;
54121;SDS011;40029;58.708;50.190;2022-12-07T15:51:58;35.00;;;13.43;;
54121;SDS011;40029;58.708;50.190;2022-12-07T15:54:29;35.37;;;12.90;;
54121;SDS011;40029;58.708;50.190;2022-12-07T15:57:02;30.17;;;11.30;;
54121;SDS011;40029;58.708;50.190;2022-12-07T15:59:33;35.40;;;11.57;;
54121;SDS011;40029;58.708;50.190;2022-12-07T16:02:05;29.63;;;11.27;;
54121;SDS011;40029;58.708;50.190;2022-12-07T16:04:36;53.43;;;16.13;;
54121;SDS011;40029;58.708;50.190;2022-12-07T16:07:07;50.77;;;17.27;;
54121;SDS011;40029;58.708;50.190;2022-12-07T16:09:38;40.67;;;12.83;;
54121;SDS011;40029;58.708;50.190;2022-12-07T16:12:10;42.90;;;15.70;;
54121;SDS011;40029;58.708;50.190;2022-12-07T16:14:43;39.03;;;12.00;;
54121;SDS011;40029;58.708;50.190;2022-12-07T16:17:14;37.80;;;13.00;;
54121;SDS011;40029;58.708;50.190;2022-12-07T16:19:45;27.43;;;10.90;;
54121;SDS011;40029;58.708;50.190;2022-12-07T16:22:16;30.20;;;10.50;;
54121;SDS011;40029;58.708;50.190;2022-12-07T16:24:47;26.90;;;10.77;;
54121;SDS011;40029;58.708;50.190;2022-12-07T16:27:18;38.23;;;14.00;;
54121;SDS011;40029;58.708;50.190;2022-12-07T16:29:49;31.77;;;11.17;;
54121;SDS011;40029;58.708;50.190;2022-12-07T16:32:20;41.73;;;13.83;;
54121;SDS011;40029;58.708;50.190;2022-12-07T16:34:51;52.13;;;16.33;;
54121;SDS011;40029;58.708;50.190;2022-12-07T16:37:22;37.20;;;15.03;;
54121;SDS011;40029;58.708;50.190;2022-12-07T16:39:53;19.93;;;9.33;;
54121;SDS011;40029;58.708;50.190;2022-12-07T16:42:24;18.53;;;7.97;;
54121;SDS011;40029;58.708;50.190;2022-12-07T16:44:55;28.47;;;10.80;;
54121;SDS011;40029;58.708;50.190;2022-12-07T16:47:26;31.83;;;11.07;;
54121;SDS011;40029;58.708;50.190;2022-12-07T16:49:57;30.70;;;10.87;;
54121;SDS011;40029;58.708;50.190;2022-12-07T16:52:28;24.83;;;10.53;;
54121;SDS011;40029;58.708;50.190;2022-12-07T16:54:59;23.97;;;8.47;;
54121;SDS011;40029;58.708;50.190;2022-12-07T16:57:30;28.57;;;9.43;;
54121;SDS011;40029;58.708;50.190;2022-12-07T17:00:03;24.87;;;8.50;;
54121;SDS011;40029;58.708;50.190;2022-12-07T17:02:35;17.70;;;8.20;;
54121;SDS011;40029;58.708;50.190;2022-12-07T17:05:06;18.33;;;8.97;;
54121;SDS011;40029;58.708;50.190;2022-12-07T17:07:38;21.93;;;8.50;;
54121;SDS011;40029;58.708;50.190;2022-12-07T17:10:10;22.37;;;7.37;;
54121;SDS011;40029;58.708;50.190;2022-12-07T17:12:41;21.43;;;7.47;;
54121;SDS011;40029;58.708;50.190;2022-12-07T17:15:12;17.73;;;7.50;;
54121;SDS011;40029;58.708;50.190;2022-12-07T17:17:54;22.50;;;7.17;;
54121;SDS011;40029;58.708;50.190;2022-12-07T17:20:27;25.42;;;9.05;;
54121;SDS011;40029;58.708;50.190;2022-12-07T17:22:58;22.93;;;8.60;;
54121;SDS011;40029;58.708;50.190;2022-12-07T17:25:29;20.70;;;7.90;;
54121;SDS011;40029;58.708;50.190;2022-12-07T17:28:00;18.73;;;6.70;;
54121;SDS011;40029;58.708;50.190;2022-12-07T17:30:31;23.57;;;8.53;;
54121;SDS011;40029;58.708;50.190;2022-12-07T17:33:02;24.17;;;7.97;;
54121;SDS011;40029;58.708;50.190;2022-12-07T17:35:33;22.97;;;8.33;;
54121;SDS011;40029;58.708;50.190;2022-12-07T17:38:04;21.67;;;8.77;;
54121;SDS011;40029;58.708;50.190;2022-12-07T17:40:35;29.03;;;9.97;;
54121;SDS011;40029;58.708;50.190;2022-12-07T17:43:06;19.40;;;7.60;;
54121;SDS011;40029;58.708;50.190;2022-12-07T17:45:37;31.97;;;9.63;;
54121;SDS011;40029;58.708;50.190;2022-12-07T17:48:08;30.53;;;9.37;;
54121;SDS011;40029;58.708;50.190;2022-12-07T17:50:39;28.27;;;8.83;;
54121;SDS011;40029;58.708;50.190;2022-12-07T17:53:28;25.20;;;10.07;;
54121;SDS011;40029;58.708;50.190;2022-12-07T17:55:59;37.40;;;10.87;;
54121;SDS011;40029;58.708;50.190;2022-12-07T17:58:30;37.33;;;11.53;;
54121;SDS011;40029;58.708;50.190;2022-12-07T18:01:01;31.80;;;11.10;;
54121;SDS011;40029;58.708;50.190;2022-12-07T18:03:39;30.87;;;10.53;;
54121;SDS011;40029;58.708;50.190;2022-12-07T18:06:10;27.80;;;9.53;;
54121;SDS011;40029;58.708;50.190;2022-12-07T18:08:41;27.60;;;9.00;;
54121;SDS011;40029;58.708;50.190;2022-12-07T18:11:12;29.57;;;9.10;;
54121;SDS011;40029;58.708;50.190;2022-12-07T18:13:43;26.27;;;9.27;;
54121;SDS011;40029;58.708;50.190;2022-12-07T18:16:15;26.40;;;9.23;;
54121;SDS011;40029;58.708;50.190;2022-12-07T18:18:49;30.60;;;10.07;;
54121;SDS011;40029;58.708;50.190;2022-12-07T18:21:24;24.57;;;9.23;;
54121;SDS011;40029;58.708;50.190;2022-12-07T18:23:59;27.57;;;9.33;;
54121;SDS011;40029;58.708;50.190;2022-12-07T18:26:32;30.70;;;9.80;;
54121;SDS011;40029;58.708;50.190;2022-12-07T18:29:07;40.20;;;10.50;;
54121;SDS011;40029;58.708;50.190;2022-12-07T18:31:42;32.67;;;11.63;;
54121;SDS011;40029;58.708;50.190;2022-12-07T18:34:16;32.08;;;11.15;;
54121;SDS011;40029;58.708;50.190;2022-12-07T18:36:48;34.00;;;11.10;;
54121;SDS011;40029;58.708;50.190;2022-12-07T18:39:20;33.80;;;11.50;;
54121;SDS011;40029;58.708;50.190;2022-12-07T18:41:51;30.47;;;10.43;;
54121;SDS011;40029;58.708;50.190;2022-12-07T18:44:22;34.43;;;11.50;;
54121;SDS011;40029;58.708;50.190;2022-12-07T18:46:53;29.43;;;9.83;;
54121;SDS011;40029;58.708;50.190;2022-12-07T18:49:25;22.43;;;8.50;;
54121;SDS011;40029;58.708;50.190;2022-12-07T18:51:56;25.67;;;9.10;;
54121;SDS011;40029;58.708;50.190;2022-12-07T18:54:27;22.90;;;9.17;;
54121;SDS011;40029;58.708;50.190;2022-12-07T18:56:58;27.67;;;8.47;;
54121;SDS011;40029;58.708;50.190;2022-12-07T18:59:29;27.07;;;9.07;;
54121;SDS011;40029;58.708;50.190;2022-12-07T19:02:18;26.80;;;9.63;;
54121;SDS011;40029;58.708;50.190;2022-12-07T19:04:49;28.57;;;10.03;;
54121;SDS011;40029;58.708;50.190;2022-12-07T19:07:20;32.80;;;11.10;;
54121;SDS011;40029;58.708;50.190;2022-12-07T19:09:52;26.13;;;9.93;;
54121;SDS011;40029;58.708;50.190;2022-12-07T19:12:23;27.17;;;9.77;;
54121;SDS011;40029;58.708;50.190;2022-12-07T19:14:54;23.13;;;7.87;;
54121;SDS011;40029;58.708;50.190;2022-12-07T19:17:25;24.93;;;8.33;;
54121;SDS011;40029;58.708;50.190;2022-12-07T19:19:56;29.10;;;8.60;;
54121;SDS011;40029;58.708;50.190;2022-12-07T19:22:28;20.97;;;9.30;;
54121;SDS011;40029;58.708;50.190;2022-12-07T19:24:59;21.80;;;8.83;;
54121;SDS011;40029;58.708;50.190;2022-12-07T19:27:30;27.37;;;9.13;;
54121;SDS011;40029;58.708;50.190;2022-12-07T19:30:04;19.73;;;8.10;;